Aérodrome :
LOGIN :

S'inscrire | Disclaimer

   EN    FR    IT 

 










Légende :    VFR   VFR Marginal   IFR   IFR Intensif   IFR Très Intensif
Visi : 
Plafond : 
>= 8 km
>= 3000ft
5 à 8 km
1000 à 3000 ft
1500m à 5 km
500 à 1000 ft
800 à 1500m
200 à 500 ft
< 800m
< 200 ft
Symboles :   Orages  Brouillard  Fortes neiges  Fortes précipitations  Vent > 20 kt
SIGMETs :   Divers  Orages  Givrage  Turbulence  Onde Orograph.  Cendres Volcan.







- Altitude de l'aérodrome : 100 ft
- Code IATA : DCI


LIED - Decimomannu Air Base

DERNIER METAR :
  • 232355Z 20004KT 9999 FEW004 FEW020CB 26/24 Q1012 RETS RMK OVC BKN100 VIS MIN 9999 WIND THR35 21003KT WIND THR17 20002KT BLU

METARs EXPIRÉS :
  • 232255Z 10013KT 9999 -TSRA FEW004 SCT020CB BKN060 27/25 Q1012 RMK OVC VIS MIN 9999 WIND THR35 10013KT WIND THR17 09013KT BLU
  • 232210Z 27002KT 9999 TS FEW004 SCT020 FEW025CB 27/25 Q1016 RMK BKN BKN100 VIS MIN 9999 WIND THR35 31003KT WIND THR17 30008KT BLU

TAF TAF LIED
Valide du 24 à 00h jusqu'au 24 à 09h UTC


232300Z 2400/2409 30008KT 9999 FEW005 SCT030 FEW040CB
BECMG 2400/2402 9999 SCT030
BECMG 2406/2408 33018G28KT 9999 FEW030
Pas de NOTAMs connus pour ce terrain.



MET'MAP, la Météo Aéronautique d'un coup d'oeil ! - Copyright ORBIFLY Décembre 2007 - Disclaimer

ORBIFLY MET'MAP TEAM :

Programmation & Développement : Alexandra Zaïnal
Conception & Développement : Baudouin d'Aumeries
Co-Programmation & Développement : Marc-Olivier Méhu
Soutien technique & logistique : Manuel Goepfert

Contact : metmap@orbifly.com




SOURCES & CREDITS :

   NOAA